createdAt,value
2019-03-12T00:00:19.953Z,-40.00
2019-03-12T00:01:19.948Z,-40.00
2019-03-12T00:02:19.976Z,-40.00
2019-03-12T00:03:19.990Z,-40.00
2019-03-12T00:04:20.012Z,-40.00
2019-03-12T00:05:20.034Z,-40.00
2019-03-12T00:06:20.061Z,-40.00
2019-03-12T00:07:20.114Z,-40.00
2019-03-12T00:08:20.100Z,-40.00
2019-03-12T00:09:20.120Z,-40.00
2019-03-12T00:10:20.139Z,-40.00
2019-03-12T00:11:20.160Z,-40.00
2019-03-12T00:12:20.185Z,-40.00
2019-03-12T00:13:20.218Z,-40.00
2019-03-12T00:14:20.226Z,-40.00
2019-03-12T00:15:20.279Z,-40.00
2019-03-12T00:16:20.269Z,-40.00
2019-03-12T00:17:20.290Z,-40.00
2019-03-12T00:18:20.310Z,-40.00
2019-03-12T00:19:20.334Z,-40.00
2019-03-12T00:20:20.353Z,-40.00
2019-03-12T00:21:20.374Z,-40.00
2019-03-12T00:22:20.395Z,-40.00
2019-03-12T00:23:20.418Z,-40.00
2019-03-12T00:24:20.440Z,-40.00
2019-03-12T00:25:20.460Z,-40.00
2019-03-12T00:26:20.482Z,-40.00
2019-03-12T00:27:20.503Z,-40.00
2019-03-12T00:28:20.524Z,-40.00
2019-03-12T00:29:20.543Z,-40.00
2019-03-12T00:30:20.565Z,-40.00
2019-03-12T00:31:20.587Z,-40.00
2019-03-12T00:32:20.607Z,-40.00
2019-03-12T00:33:20.631Z,-40.00
2019-03-12T00:34:20.650Z,-40.00
2019-03-12T00:35:20.674Z,-40.00
2019-03-12T00:36:20.694Z,-40.00
2019-03-12T00:37:20.715Z,-40.00
2019-03-12T00:38:20.735Z,-40.00
2019-03-12T00:39:20.755Z,-40.00
2019-03-12T00:40:20.779Z,-40.00
2019-03-12T00:41:20.799Z,-40.00
2019-03-12T00:42:20.817Z,-40.00
2019-03-12T00:43:20.839Z,-40.00
2019-03-12T00:44:20.942Z,-40.00
2019-03-12T00:45:20.883Z,-40.00
2019-03-12T00:46:20.995Z,-40.00
2019-03-12T00:47:20.944Z,-40.00
2019-03-12T00:48:20.950Z,-40.00
2019-03-12T00:49:20.970Z,-40.00
2019-03-12T00:50:20.990Z,-40.00
2019-03-12T00:51:21.007Z,-40.00
2019-03-12T00:52:21.032Z,-40.00
2019-03-12T00:53:21.055Z,-40.00
2019-03-12T00:54:21.071Z,-40.00
2019-03-12T00:55:21.098Z,-40.00
2019-03-12T00:56:21.112Z,-40.00
2019-03-12T00:57:21.138Z,-40.00
2019-03-12T00:58:21.155Z,-40.00
2019-03-12T00:59:21.175Z,-40.00
2019-03-12T01:00:21.199Z,-40.00
2019-03-12T01:01:21.218Z,-40.00
2019-03-12T01:02:21.238Z,-40.00
2019-03-12T01:03:21.261Z,-40.00
2019-03-12T01:04:21.284Z,-40.00
2019-03-12T01:05:21.303Z,-40.00
2019-03-12T01:06:21.323Z,-40.00
2019-03-12T01:07:21.346Z,-40.00
2019-03-12T01:08:21.368Z,-40.00
2019-03-12T01:09:21.390Z,-40.00
2019-03-12T01:10:21.409Z,-40.00
2019-03-12T01:11:21.431Z,-40.00
2019-03-12T01:12:21.452Z,-40.00
2019-03-12T01:13:21.473Z,-40.00
2019-03-12T01:14:21.578Z,-40.00
2019-03-12T01:15:21.513Z,-40.00
2019-03-12T01:16:21.535Z,-40.00
2019-03-12T01:17:21.557Z,-40.00
2019-03-12T01:18:21.581Z,-40.00
2019-03-12T01:19:21.600Z,-40.00
2019-03-12T01:20:21.623Z,-40.00
2019-03-12T01:21:21.646Z,-40.00
2019-03-12T01:22:21.662Z,-40.00
2019-03-12T01:23:21.685Z,-40.00
2019-03-12T01:24:21.709Z,-40.00
2019-03-12T01:25:21.728Z,-40.00
2019-03-12T01:26:21.750Z,-40.00
2019-03-12T01:27:21.771Z,-40.00
2019-03-12T01:28:21.798Z,-40.00
2019-03-12T01:29:21.815Z,-40.00
2019-03-12T01:30:21.836Z,-40.00
2019-03-12T01:31:21.853Z,-40.00
2019-03-12T01:32:21.876Z,-40.00
2019-03-12T01:33:21.909Z,-40.00
2019-03-12T01:34:21.919Z,-40.00
2019-03-12T01:35:21.940Z,-40.00
2019-03-12T01:36:21.961Z,-40.00
2019-03-12T01:37:21.984Z,-40.00
2019-03-12T01:38:22.008Z,-40.00
2019-03-12T01:39:22.026Z,-40.00
2019-03-12T01:40:22.046Z,-40.00
2019-03-12T01:41:22.071Z,-40.00
2019-03-12T01:42:22.091Z,-40.00
2019-03-12T01:43:22.115Z,-40.00
2019-03-12T01:44:22.135Z,-40.00
2019-03-12T01:45:22.155Z,-40.00
2019-03-12T01:46:22.179Z,-40.00
2019-03-12T01:47:22.201Z,-40.00
2019-03-12T01:48:22.220Z,-40.00
2019-03-12T01:49:22.245Z,-40.00
2019-03-12T01:50:22.265Z,-40.00
2019-03-12T01:51:22.286Z,-40.00
2019-03-12T01:52:22.310Z,-40.00
2019-03-12T01:53:22.330Z,-40.00
2019-03-12T01:54:22.351Z,-40.00
2019-03-12T01:55:22.370Z,-40.00
2019-03-12T01:56:22.392Z,-40.00
2019-03-12T01:57:22.416Z,-40.00
2019-03-12T01:58:22.441Z,-40.00
2019-03-12T01:59:22.459Z,-40.00
2019-03-12T02:00:22.480Z,-40.00
2019-03-12T02:01:22.502Z,-40.00
2019-03-12T02:02:22.533Z,-40.00
2019-03-12T02:03:22.543Z,-40.00
2019-03-12T02:04:22.569Z,-40.00
2019-03-12T02:05:22.590Z,-40.00
2019-03-12T02:06:22.611Z,-40.00
2019-03-12T02:07:22.634Z,-40.00
2019-03-12T02:08:22.656Z,-40.00
2019-03-12T02:09:22.680Z,-40.00
2019-03-12T02:10:22.703Z,-40.00
2019-03-12T02:11:22.725Z,-40.00
2019-03-12T02:12:22.748Z,-40.00
2019-03-12T02:13:22.770Z,-40.00
2019-03-12T02:14:22.794Z,-40.00
2019-03-12T02:15:22.812Z,-40.00
2019-03-12T02:16:22.835Z,-40.00
2019-03-12T02:17:22.857Z,-40.00
2019-03-12T02:18:22.880Z,-40.00
2019-03-12T02:19:22.905Z,-40.00
2019-03-12T02:20:22.931Z,-40.00
2019-03-12T02:21:22.948Z,-40.00
2019-03-12T02:22:22.998Z,-40.00
2019-03-12T02:23:22.991Z,-40.00
2019-03-12T02:24:23.020Z,-40.00
2019-03-12T02:25:23.038Z,-40.00
2019-03-12T02:26:23.059Z,-40.00
2019-03-12T02:27:23.090Z,-40.00
2019-03-12T02:28:23.104Z,-40.00
2019-03-12T02:29:23.127Z,-40.00
2019-03-12T02:30:23.151Z,-40.00
2019-03-12T02:31:23.196Z,-40.00
2019-03-12T02:32:23.194Z,-40.00
2019-03-12T02:33:23.254Z,-40.00
2019-03-12T02:34:23.240Z,-40.00
2019-03-12T02:35:23.264Z,-40.00
2019-03-12T02:36:23.435Z,-40.00
2019-03-12T02:37:23.332Z,-40.00
2019-03-12T02:38:23.331Z,-40.00
2019-03-12T02:39:23.379Z,-40.00
2019-03-12T02:40:23.384Z,-40.00
2019-03-12T02:41:23.401Z,-40.00
2019-03-12T02:42:23.424Z,-40.00
2019-03-12T02:43:23.445Z,-40.00
2019-03-12T02:44:23.477Z,-40.00
2019-03-12T02:45:23.499Z,-40.00
2019-03-12T02:46:23.516Z,-40.00
2019-03-12T02:47:23.538Z,-40.00
2019-03-12T02:48:23.566Z,-40.00
2019-03-12T02:49:23.590Z,-40.00
2019-03-12T02:50:23.611Z,-40.00
2019-03-12T02:51:23.630Z,-40.00
2019-03-12T02:52:23.667Z,-40.00
2019-03-12T02:53:23.684Z,-40.00
2019-03-12T02:54:23.706Z,-40.00
2019-03-12T02:55:23.734Z,-40.00
2019-03-12T02:56:23.744Z,-40.00
2019-03-12T02:57:23.766Z,-40.00
2019-03-12T02:58:23.790Z,-40.00
2019-03-12T02:59:23.816Z,-40.00
2019-03-12T03:00:23.844Z,-40.00
2019-03-12T03:01:23.857Z,-40.00
2019-03-12T03:02:23.884Z,-40.00
2019-03-12T03:03:23.905Z,-40.00
2019-03-12T03:04:23.929Z,-40.00
2019-03-12T03:05:23.950Z,-40.00
2019-03-12T03:06:23.978Z,-40.00
2019-03-12T03:07:24.003Z,-40.00
2019-03-12T03:08:24.029Z,-40.00
2019-03-12T03:09:24.041Z,-40.00
2019-03-12T03:10:24.064Z,-40.00
2019-03-12T03:11:24.091Z,-40.00
2019-03-12T03:12:24.109Z,-40.00
2019-03-12T03:13:24.131Z,-40.00
2019-03-12T03:14:24.154Z,-40.00
2019-03-12T03:15:24.179Z,-40.00
2019-03-12T03:16:24.589Z,-40.00
2019-03-12T03:17:24.222Z,-40.00
2019-03-12T03:18:24.244Z,-40.00
2019-03-12T03:19:24.278Z,-40.00
2019-03-12T03:20:24.296Z,-40.00
2019-03-12T03:21:24.314Z,-40.00
2019-03-12T03:22:24.336Z,-40.00
2019-03-12T03:23:24.359Z,-40.00
2019-03-12T03:24:24.386Z,-40.00
2019-03-12T03:25:24.407Z,-40.00
2019-03-12T03:26:24.431Z,-40.00
2019-03-12T03:27:24.453Z,-40.00
2019-03-12T03:28:24.478Z,-40.00
2019-03-12T03:29:24.498Z,-40.00
2019-03-12T03:30:24.552Z,-40.00
2019-03-12T03:31:24.546Z,-40.00
2019-03-12T03:32:24.568Z,-40.00
2019-03-12T03:33:24.589Z,-40.00
2019-03-12T03:34:28.180Z,-40.00
2019-03-12T03:35:24.633Z,-40.00
2019-03-12T03:36:24.657Z,-40.00
2019-03-12T03:37:24.688Z,-40.00
2019-03-12T03:38:24.704Z,-40.00
2019-03-12T03:39:24.725Z,-40.00
2019-03-12T03:40:24.767Z,-40.00
2019-03-12T03:41:24.803Z,-40.00
2019-03-12T03:42:24.793Z,-40.00
2019-03-12T03:43:24.819Z,-40.00
2019-03-12T03:44:24.839Z,-40.00
2019-03-12T03:45:24.863Z,-40.00
2019-03-12T03:46:24.890Z,-40.00
2019-03-12T03:47:24.908Z,-40.00
2019-03-12T03:48:24.931Z,-40.00
2019-03-12T03:49:24.960Z,-40.00
2019-03-12T03:50:24.975Z,-40.00
2019-03-12T03:51:25.001Z,-40.00
2019-03-12T03:52:25.025Z,-40.00
2019-03-12T03:53:25.045Z,-40.00
2019-03-12T03:54:25.065Z,-40.00
2019-03-12T03:55:25.090Z,-40.00
2019-03-12T03:56:25.128Z,-40.00
2019-03-12T03:57:25.138Z,-40.00
2019-03-12T03:58:25.161Z,-40.00
2019-03-12T03:59:25.180Z,-40.00
2019-03-12T04:00:25.206Z,-40.00
2019-03-12T04:01:25.230Z,-40.00
2019-03-12T04:02:25.248Z,-40.00
2019-03-12T04:03:25.276Z,-40.00
2019-03-12T04:04:25.301Z,-40.00
2019-03-12T04:05:25.323Z,-40.00
2019-03-12T04:06:25.342Z,-40.00
2019-03-12T04:07:25.365Z,-40.00
2019-03-12T04:08:25.388Z,-40.00
2019-03-12T04:09:25.412Z,-40.00
2019-03-12T04:10:25.443Z,-40.00
2019-03-12T04:11:25.455Z,-40.00
2019-03-12T04:12:25.478Z,-40.00
2019-03-12T04:13:25.500Z,-40.00
2019-03-12T04:14:25.543Z,-40.00
2019-03-12T04:15:25.548Z,-40.00
2019-03-12T04:16:25.570Z,-40.00
2019-03-12T04:17:25.607Z,-40.00
2019-03-12T04:18:25.617Z,-40.00
2019-03-12T04:19:25.645Z,-40.00
2019-03-12T04:20:25.663Z,-40.00
2019-03-12T04:21:25.700Z,-40.00
2019-03-12T04:22:25.811Z,-40.00
2019-03-12T04:23:25.729Z,-40.00
2019-03-12T04:24:25.753Z,-40.00
2019-03-12T04:25:25.775Z,-40.00
2019-03-12T04:26:25.798Z,-40.00
2019-03-12T04:27:25.826Z,-40.00
2019-03-12T04:28:25.848Z,-40.00
2019-03-12T04:29:25.876Z,-40.00
2019-03-12T04:30:25.890Z,-40.00
2019-03-12T04:31:25.915Z,-40.00
2019-03-12T04:32:25.936Z,-40.00
2019-03-12T04:33:25.960Z,-40.00
2019-03-12T04:34:25.986Z,-40.00
2019-03-12T04:35:26.008Z,-40.00
2019-03-12T04:36:26.029Z,-40.00
2019-03-12T04:37:26.052Z,-40.00
2019-03-12T04:38:26.075Z,-40.00
2019-03-12T04:39:26.096Z,-40.00
2019-03-12T04:40:26.122Z,-40.00
2019-03-12T04:41:26.144Z,-40.00
2019-03-12T04:42:26.166Z,-40.00
2019-03-12T04:43:26.190Z,-40.00
2019-03-12T04:44:26.213Z,-40.00
2019-03-12T04:45:26.239Z,-40.00
2019-03-12T04:46:26.261Z,-40.00
2019-03-12T04:47:26.286Z,-40.00
2019-03-12T04:48:26.308Z,-40.00
2019-03-12T04:49:26.329Z,-40.00
2019-03-12T04:50:26.351Z,-40.00
2019-03-12T04:51:26.392Z,-40.00
2019-03-12T04:52:26.400Z,-40.00
2019-03-12T04:53:26.421Z,-40.00
2019-03-12T04:54:26.445Z,-40.00
2019-03-12T04:55:26.468Z,-40.00
2019-03-12T04:56:26.492Z,-40.00
2019-03-12T04:57:26.517Z,-40.00
2019-03-12T04:58:26.538Z,-40.00
2019-03-12T04:59:26.560Z,-40.00
2019-03-12T05:00:26.587Z,-40.00
2019-03-12T05:01:26.608Z,-40.00
2019-03-12T05:02:26.631Z,-40.00
2019-03-12T05:03:26.654Z,-40.00
2019-03-12T05:04:26.680Z,-40.00
2019-03-12T05:05:26.702Z,-40.00
2019-03-12T05:06:26.724Z,-40.00
2019-03-12T05:07:26.750Z,-40.00
2019-03-12T05:08:26.772Z,-40.00
2019-03-12T05:09:26.794Z,-40.00
2019-03-12T05:10:26.821Z,-40.00
2019-03-12T05:11:26.840Z,-40.00
2019-03-12T05:12:26.866Z,-40.00
2019-03-12T05:13:26.889Z,-40.00
2019-03-12T05:14:26.909Z,-40.00
2019-03-12T05:15:26.940Z,-40.00
2019-03-12T05:16:26.963Z,-40.00
2019-03-12T05:17:27.066Z,-40.00
2019-03-12T05:18:27.008Z,-40.00
2019-03-12T05:19:27.029Z,-40.00
2019-03-12T05:20:27.053Z,-40.00
2019-03-12T05:21:27.076Z,-40.00
2019-03-12T05:22:27.098Z,-40.00
2019-03-12T05:23:27.123Z,-40.00
2019-03-12T05:24:27.147Z,-40.00
2019-03-12T05:25:27.172Z,-40.00
2019-03-12T05:26:27.193Z,-40.00
2019-03-12T05:27:27.216Z,-40.00
2019-03-12T05:28:27.241Z,-40.00
2019-03-12T05:29:27.267Z,-40.00
2019-03-12T05:30:27.286Z,-40.00
2019-03-12T05:31:27.313Z,-40.00
2019-03-12T05:32:27.426Z,-40.00
2019-03-12T05:33:27.358Z,-40.00
2019-03-12T05:34:27.385Z,-40.00
2019-03-12T05:35:27.408Z,-40.00
2019-03-12T05:36:27.430Z,-40.00
2019-03-12T05:37:27.454Z,-40.00
2019-03-12T05:38:27.477Z,-40.00
2019-03-12T05:39:27.501Z,-40.00
2019-03-12T05:40:27.524Z,-40.00
2019-03-12T05:41:27.550Z,-40.00
2019-03-12T05:42:27.576Z,-40.00
2019-03-12T05:43:27.595Z,-40.00
2019-03-12T05:44:27.620Z,-40.00
2019-03-12T05:45:27.644Z,-40.00
2019-03-12T05:46:27.668Z,-40.00
2019-03-12T05:47:27.691Z,-40.00
2019-03-12T05:48:27.720Z,-40.00
2019-03-12T05:49:27.739Z,-40.00
2019-03-12T05:50:27.760Z,-40.00
2019-03-12T05:51:27.786Z,-40.00
2019-03-12T05:52:27.810Z,-40.00
2019-03-12T05:53:27.837Z,-40.00
2019-03-12T05:54:27.868Z,-40.00
2019-03-12T05:55:27.881Z,-40.00
2019-03-12T05:56:27.905Z,-40.00
2019-03-12T05:57:27.935Z,-40.00
2019-03-12T05:58:27.953Z,-40.00
2019-03-12T05:59:27.978Z,-40.00
2019-03-12T06:00:28.008Z,-40.00
2019-03-12T06:01:28.028Z,-40.00
2019-03-12T06:02:28.052Z,-40.00
2019-03-12T06:03:28.075Z,-40.00
2019-03-12T06:04:28.099Z,-40.00
2019-03-12T06:05:28.124Z,-40.00
2019-03-12T06:06:28.147Z,-40.00
2019-03-12T06:07:28.170Z,-40.00
2019-03-12T06:08:28.199Z,-40.00
2019-03-12T06:09:30.468Z,-40.00
2019-03-12T06:10:28.242Z,-40.00
2019-03-12T06:11:28.266Z,-40.00
2019-03-12T06:12:28.293Z,-40.00
2019-03-12T06:13:28.318Z,-40.00
2019-03-12T06:14:28.339Z,-40.00
2019-03-12T06:15:28.362Z,-40.00
2019-03-12T06:16:28.388Z,-40.00
2019-03-12T06:17:28.414Z,-40.00
2019-03-12T06:18:28.439Z,-40.00
2019-03-12T06:19:28.461Z,-40.00
2019-03-12T06:20:28.485Z,-40.00
2019-03-12T06:21:28.514Z,-40.00
2019-03-12T06:22:28.533Z,-40.00
2019-03-12T06:23:28.558Z,-40.00
2019-03-12T06:24:28.588Z,-40.00
2019-03-12T06:25:28.617Z,-40.00
2019-03-12T06:26:28.637Z,-40.00
2019-03-12T06:27:28.656Z,-40.00
2019-03-12T06:28:31.095Z,-40.00
2019-03-12T06:29:28.708Z,-40.00
2019-03-12T06:30:28.729Z,-40.00
2019-03-12T06:31:28.756Z,-40.00
2019-03-12T06:32:28.781Z,-40.00
2019-03-12T06:33:28.803Z,-40.00
2019-03-12T06:34:28.826Z,-40.00
2019-03-12T06:35:28.855Z,-40.00
2019-03-12T06:36:28.876Z,-40.00
2019-03-12T06:37:28.900Z,-40.00
2019-03-12T06:38:28.925Z,-40.00
2019-03-12T06:39:28.951Z,-40.00
2019-03-12T06:40:29.082Z,-40.00
2019-03-12T06:41:29.002Z,-40.00
2019-03-12T06:42:29.029Z,-40.00
2019-03-12T06:43:29.055Z,-40.00
2019-03-12T06:44:29.075Z,-40.00
2019-03-12T06:45:29.102Z,-40.00
2019-03-12T06:46:29.125Z,-40.00
2019-03-12T06:47:29.150Z,-40.00
2019-03-12T06:48:29.173Z,-40.00
2019-03-12T06:49:29.199Z,-40.00
2019-03-12T06:50:29.223Z,-40.00
2019-03-12T06:51:29.249Z,-40.00
2019-03-12T06:52:29.272Z,-40.00
2019-03-12T06:53:29.300Z,-40.00
2019-03-12T06:54:29.323Z,-40.00
2019-03-12T06:55:29.345Z,-40.00
2019-03-12T06:56:29.373Z,-40.00
2019-03-12T06:57:29.397Z,-40.00
2019-03-12T06:58:29.423Z,-40.00
2019-03-12T06:59:29.446Z,-40.00
2019-03-12T07:00:29.472Z,-40.00
2019-03-12T07:01:29.499Z,-40.00
2019-03-12T07:02:29.521Z,-40.00
2019-03-12T07:03:29.549Z,-40.00
2019-03-12T07:04:29.574Z,-40.00
2019-03-12T07:05:29.602Z,-40.00
2019-03-12T07:06:29.624Z,-40.00
2019-03-12T07:07:29.653Z,-40.00
2019-03-12T07:08:29.674Z,-40.00
2019-03-12T07:09:29.707Z,-40.00
2019-03-12T07:10:29.730Z,-40.00
2019-03-12T07:11:29.750Z,-40.00
2019-03-12T07:12:29.778Z,-40.00
2019-03-12T07:13:29.803Z,-40.00
2019-03-12T07:14:29.826Z,-40.00
2019-03-12T07:15:29.870Z,-40.00
2019-03-12T07:16:29.881Z,-40.00
2019-03-12T07:17:29.908Z,-40.00
2019-03-12T07:18:29.949Z,-40.00
2019-03-12T07:19:29.957Z,-40.00
2019-03-12T07:20:29.980Z,-40.00
2019-03-12T07:21:30.005Z,-40.00
2019-03-12T07:22:30.034Z,-40.00
2019-03-12T07:23:30.056Z,-40.00
2019-03-12T07:24:30.097Z,-40.00
2019-03-12T07:25:30.109Z,-40.00
2019-03-12T07:26:30.136Z,-40.00
2019-03-12T07:27:30.160Z,-40.00
2019-03-12T07:28:30.187Z,-40.00
2019-03-12T07:29:30.210Z,-40.00
2019-03-12T07:30:30.235Z,-40.00
2019-03-12T07:31:30.261Z,-40.00
2019-03-12T07:32:30.295Z,-40.00
2019-03-12T07:33:30.314Z,-40.00
2019-03-12T07:34:36.549Z,-40.00
2019-03-12T07:35:30.370Z,-40.00
2019-03-12T07:36:30.393Z,-40.00
2019-03-12T07:37:30.419Z,-40.00
2019-03-12T07:38:30.444Z,-40.00
2019-03-12T07:39:30.469Z,-40.00
2019-03-12T07:40:30.494Z,-40.00
2019-03-12T07:41:32.706Z,-40.00
2019-03-12T07:42:30.546Z,-40.00
2019-03-12T07:43:30.571Z,-40.00
2019-03-12T07:44:30.597Z,-40.00
2019-03-12T07:45:30.625Z,-40.00
2019-03-12T07:46:30.649Z,-40.00
2019-03-12T07:47:35.833Z,-40.00
2019-03-12T07:48:30.702Z,-40.00
2019-03-12T07:49:30.730Z,-40.00
2019-03-12T07:50:30.757Z,-40.00
2019-03-12T07:51:30.781Z,-40.00
2019-03-12T07:52:30.828Z,-40.00
2019-03-12T07:53:30.835Z,-40.00
2019-03-12T07:54:30.859Z,-40.00
2019-03-12T07:55:30.888Z,-40.00
2019-03-12T07:56:30.913Z,-40.00
2019-03-12T07:57:30.941Z,-40.00
2019-03-12T07:58:35.821Z,-40.00
2019-03-12T07:59:30.989Z,-40.00
2019-03-12T08:00:31.016Z,-40.00
2019-03-12T08:01:31.042Z,-40.00
2019-03-12T08:02:31.068Z,-40.00
2019-03-12T08:03:31.096Z,-40.00
2019-03-12T08:04:31.125Z,-40.00
2019-03-12T08:05:31.155Z,-40.00
2019-03-12T08:06:31.177Z,-40.00
2019-03-12T08:07:31.205Z,-40.00
2019-03-12T08:08:31.227Z,-40.00
2019-03-12T08:09:31.257Z,-40.00
2019-03-12T08:10:33.632Z,-40.00
2019-03-12T08:11:31.309Z,-40.00
2019-03-12T08:12:34.185Z,-40.00
2019-03-12T08:13:31.360Z,-40.00
2019-03-12T08:14:31.390Z,-40.00
2019-03-12T08:15:31.422Z,-40.00
2019-03-12T08:16:31.439Z,-40.00
2019-03-12T08:17:31.476Z,-40.00
2019-03-12T08:18:31.492Z,-40.00
2019-03-12T08:19:31.520Z,-40.00
2019-03-12T08:20:31.551Z,-40.00
2019-03-12T08:21:31.577Z,-40.00
2019-03-12T08:22:31.608Z,-40.00
2019-03-12T08:23:31.630Z,-40.00
2019-03-12T08:24:31.653Z,-40.00
2019-03-12T08:25:31.684Z,-40.00
2019-03-12T08:26:31.709Z,-40.00
2019-03-12T08:27:31.742Z,-40.00
2019-03-12T08:28:31.762Z,-40.00
2019-03-12T08:29:31.790Z,-40.00
2019-03-12T08:30:31.821Z,-40.00
2019-03-12T08:31:31.841Z,-40.00
2019-03-12T08:32:31.869Z,-40.00
2019-03-12T08:33:32.205Z,-40.00
2019-03-12T08:34:31.928Z,-40.00
2019-03-12T08:35:31.950Z,-40.00
2019-03-12T08:36:31.975Z,-40.00
2019-03-12T08:37:32.016Z,-40.00
2019-03-12T08:38:32.034Z,-40.00
2019-03-12T08:39:32.059Z,-40.00
2019-03-12T08:40:32.085Z,-40.00
2019-03-12T08:41:32.115Z,-40.00
2019-03-12T08:42:32.156Z,-40.00
2019-03-12T08:43:32.167Z,-40.00
2019-03-12T08:44:32.198Z,-40.00
2019-03-12T08:45:32.239Z,-40.00
2019-03-12T08:46:32.254Z,-40.00
2019-03-12T08:47:32.279Z,-40.00
2019-03-12T08:48:32.308Z,-40.00
2019-03-12T08:49:34.754Z,-40.00
2019-03-12T08:50:32.358Z,-40.00
2019-03-12T08:51:32.389Z,-40.00
2019-03-12T08:52:32.430Z,-40.00
2019-03-12T08:53:32.456Z,-40.00
2019-03-12T08:54:32.472Z,-40.00
2019-03-12T08:55:32.499Z,-40.00
2019-03-12T08:56:32.954Z,-40.00
2019-03-12T08:57:32.555Z,-40.00
2019-03-12T08:58:32.583Z,-40.00
2019-03-12T08:59:32.612Z,-40.00
2019-03-12T09:00:32.642Z,-40.00
2019-03-12T09:01:32.669Z,-40.00
2019-03-12T09:02:32.697Z,-40.00
2019-03-12T09:03:32.724Z,-40.00
2019-03-12T09:04:32.756Z,-40.00
2019-03-12T09:05:32.779Z,-40.00
2019-03-12T09:06:32.834Z,-40.00
2019-03-12T09:07:32.839Z,-40.00
2019-03-12T09:08:32.863Z,-40.00
2019-03-12T09:09:32.892Z,-40.00
2019-03-12T09:10:32.920Z,-40.00
2019-03-12T09:11:32.947Z,-40.00
2019-03-12T09:12:32.974Z,-40.00
2019-03-12T09:13:33.002Z,-40.00
2019-03-12T09:14:33.046Z,-40.00
2019-03-12T09:15:33.069Z,-40.00
2019-03-12T09:16:33.083Z,-40.00
2019-03-12T09:17:33.112Z,-40.00
2019-03-12T09:18:33.137Z,-40.00
2019-03-12T09:19:33.174Z,-40.00
2019-03-12T09:20:33.194Z,-40.00
2019-03-12T09:21:33.220Z,-40.00
2019-03-12T09:22:33.247Z,-40.00
2019-03-12T09:23:33.274Z,-40.00
2019-03-12T09:24:33.315Z,1.38
2019-03-12T09:25:33.329Z,1.39
2019-03-12T09:26:33.358Z,1.42
2019-03-12T09:27:33.389Z,1.39
2019-03-12T09:28:33.411Z,1.45
2019-03-12T09:29:33.440Z,1.46
2019-03-12T09:30:33.468Z,1.30
2019-03-12T09:31:33.493Z,1.00
2019-03-12T09:32:33.523Z,0.78
2019-03-12T09:33:33.554Z,0.59
2019-03-12T09:34:33.588Z,0.63
2019-03-12T09:35:33.606Z,0.56
2019-03-12T09:36:33.638Z,0.42
2019-03-12T09:37:33.663Z,0.36
2019-03-12T09:38:33.688Z,0.20
2019-03-12T09:39:33.716Z,0.23
2019-03-12T09:40:33.746Z,0.36
2019-03-12T09:41:33.774Z,0.42
2019-03-12T09:42:33.821Z,0.70
2019-03-12T09:43:33.828Z,1.13
2019-03-12T09:44:33.854Z,1.32
2019-03-12T09:45:33.885Z,1.42
2019-03-12T09:46:33.909Z,1.56
2019-03-12T09:47:33.936Z,1.58
2019-03-12T09:48:33.966Z,1.50
2019-03-12T09:49:33.991Z,1.32
2019-03-12T09:50:34.020Z,1.46
2019-03-12T09:51:34.078Z,1.50
2019-03-12T09:52:34.075Z,1.52
2019-03-12T09:53:34.102Z,1.40
2019-03-12T09:54:34.130Z,1.43
2019-03-12T09:55:34.159Z,1.42
2019-03-12T09:56:34.203Z,1.79
2019-03-12T09:57:34.302Z,1.98
2019-03-12T09:58:34.259Z,2.12
2019-03-12T09:59:34.272Z,2.03
2019-03-12T10:00:34.307Z,2.00
2019-03-12T10:01:34.345Z,1.63
2019-03-12T10:02:34.353Z,1.42
2019-03-12T10:03:34.401Z,1.48
2019-03-12T10:04:34.415Z,1.42
2019-03-12T10:05:34.442Z,1.42
2019-03-12T10:06:34.466Z,1.31
2019-03-12T10:07:34.495Z,1.32
2019-03-12T10:08:34.541Z,1.32
2019-03-12T10:09:34.554Z,1.18
2019-03-12T10:10:34.580Z,1.12
2019-03-12T10:11:34.611Z,0.99
2019-03-12T10:12:34.637Z,1.02
2019-03-12T10:13:34.669Z,1.00
2019-03-12T10:14:34.696Z,0.96
2019-03-12T10:15:34.724Z,1.00
2019-03-12T10:16:34.750Z,0.92
2019-03-12T10:17:34.783Z,0.71
2019-03-12T10:18:34.807Z,0.84
2019-03-12T10:19:34.834Z,0.99
2019-03-12T10:20:34.865Z,1.22
2019-03-12T10:21:34.894Z,1.27
2019-03-12T10:22:34.919Z,1.45
2019-03-12T10:23:34.948Z,1.46
2019-03-12T10:24:34.975Z,1.70
2019-03-12T10:25:35.004Z,2.15
2019-03-12T10:26:35.031Z,2.22
2019-03-12T10:27:35.061Z,2.34
2019-03-12T10:28:35.102Z,2.26
2019-03-12T10:29:35.118Z,2.08
2019-03-12T10:30:37.381Z,1.78
2019-03-12T10:31:35.184Z,1.45
2019-03-12T10:32:35.207Z,1.32
2019-03-12T10:33:35.233Z,1.28
2019-03-12T10:34:35.262Z,1.07
2019-03-12T10:35:35.294Z,0.91
2019-03-12T10:36:35.320Z,0.88
2019-03-12T10:37:35.350Z,0.85
2019-03-12T10:38:35.375Z,0.70
2019-03-12T10:39:35.405Z,0.58
2019-03-12T10:40:35.434Z,0.70
2019-03-12T10:41:35.461Z,0.52
2019-03-12T10:42:35.488Z,0.55
2019-03-12T10:43:35.519Z,0.48
2019-03-12T10:44:35.545Z,0.63
2019-03-12T10:45:35.575Z,0.74
2019-03-12T10:46:35.609Z,0.99
2019-03-12T10:47:35.637Z,1.24
2019-03-12T10:48:35.660Z,1.45
2019-03-12T10:49:37.610Z,1.74
2019-03-12T10:50:35.714Z,2.14
2019-03-12T10:51:35.773Z,2.21
2019-03-12T10:52:35.778Z,2.25
2019-03-12T10:53:35.819Z,1.95
2019-03-12T10:54:35.828Z,1.98
2019-03-12T10:55:35.886Z,2.01
2019-03-12T10:56:35.890Z,2.05
2019-03-12T10:57:35.931Z,2.25
2019-03-12T10:58:35.953Z,-40.00
2019-03-12T10:59:35.987Z,-40.00
2019-03-12T11:00:36.028Z,-40.00
2019-03-12T11:01:36.031Z,-40.00
2019-03-12T11:02:36.072Z,-40.00
2019-03-12T11:03:36.115Z,-40.00
2019-03-12T11:04:36.137Z,-40.00
2019-03-12T11:05:45.816Z,-40.00
2019-03-12T11:06:36.187Z,-40.00
2019-03-12T11:07:36.226Z,-40.00
2019-03-12T11:08:36.252Z,-40.00
2019-03-12T11:09:36.271Z,-40.00
2019-03-12T11:10:36.313Z,-40.00
2019-03-12T11:11:36.390Z,-40.00
2019-03-12T11:12:36.418Z,-40.00
2019-03-12T11:13:36.380Z,-40.00
2019-03-12T11:14:36.416Z,-40.00
2019-03-12T11:15:36.448Z,-40.00
2019-03-12T11:16:36.472Z,-40.00
2019-03-12T11:17:48.836Z,-40.00
2019-03-12T11:18:36.518Z,-40.00
2019-03-12T11:19:36.533Z,-40.00
2019-03-12T11:20:36.561Z,-40.00
2019-03-12T11:21:36.589Z,-40.00
2019-03-12T11:22:36.621Z,-40.00
2019-03-12T11:23:36.653Z,-40.00
2019-03-12T11:24:36.673Z,-40.00
2019-03-12T11:25:36.703Z,-40.00
2019-03-12T11:26:36.727Z,-40.00
2019-03-12T11:27:36.757Z,-40.00
2019-03-12T11:28:36.785Z,-40.00
2019-03-12T11:29:36.815Z,-40.00
2019-03-12T11:30:36.843Z,-40.00
2019-03-12T11:31:36.867Z,-40.00
2019-03-12T11:32:36.901Z,-40.00
2019-03-12T11:33:36.923Z,-40.00
2019-03-12T11:34:38.544Z,-40.00
2019-03-12T11:35:39.552Z,-40.00
2019-03-12T11:36:37.017Z,-40.00
2019-03-12T11:37:37.037Z,-40.00
2019-03-12T11:38:37.076Z,-40.00
2019-03-12T11:39:37.097Z,-40.00
2019-03-12T11:40:37.136Z,-40.00
2019-03-12T11:41:37.235Z,-40.00
2019-03-12T11:42:37.218Z,-40.00
2019-03-12T11:43:37.214Z,-40.00
2019-03-12T11:44:37.249Z,-40.00
2019-03-12T11:45:38.266Z,-40.00
2019-03-12T11:46:44.021Z,-40.00
2019-03-12T11:47:37.337Z,-40.00
2019-03-12T11:48:37.366Z,-40.00
2019-03-12T11:49:37.420Z,-40.00
2019-03-12T11:50:37.463Z,-40.00
2019-03-12T11:51:37.455Z,-40.00
2019-03-12T11:52:37.509Z,-40.00
2019-03-12T11:53:37.524Z,-40.00
2019-03-12T11:54:37.557Z,-40.00
2019-03-12T11:55:37.655Z,-40.00
2019-03-12T11:56:37.613Z,-40.00
2019-03-12T11:57:37.631Z,-40.00
2019-03-12T11:58:37.662Z,-40.00
2019-03-12T11:59:37.706Z,-40.00
2019-03-12T12:00:37.762Z,-40.00
2019-03-12T12:01:37.748Z,-40.00
2019-03-12T12:02:37.776Z,1.75
2019-03-12T12:03:37.810Z,2.44
2019-03-12T12:04:37.836Z,-40.00
2019-03-12T12:05:37.870Z,-40.00
2019-03-12T12:06:42.456Z,-40.00
2019-03-12T12:07:38.212Z,-40.00
2019-03-12T12:08:37.956Z,-40.00
2019-03-12T12:09:38.067Z,-40.00
2019-03-12T12:10:38.019Z,-40.00
2019-03-12T12:11:38.054Z,-40.00
2019-03-12T12:12:40.096Z,-40.00
2019-03-12T12:13:38.141Z,-40.00
2019-03-12T12:14:38.134Z,-40.00
2019-03-12T12:15:38.167Z,-40.00
2019-03-12T12:16:38.191Z,-40.00
2019-03-12T12:17:38.221Z,-40.00
2019-03-12T12:18:38.250Z,-40.00
2019-03-12T12:19:38.281Z,-40.00
2019-03-12T12:20:38.309Z,-40.00
2019-03-12T12:21:38.340Z,-40.00
2019-03-12T12:22:38.368Z,-40.00
2019-03-12T12:23:38.398Z,-40.00
2019-03-12T12:24:38.431Z,-40.00
2019-03-12T12:25:38.463Z,-40.00
2019-03-12T12:26:38.486Z,-40.00
2019-03-12T12:27:38.520Z,-40.00
2019-03-12T12:28:38.546Z,-40.00
2019-03-12T12:29:38.576Z,-40.00
2019-03-12T12:30:38.606Z,-40.00
2019-03-12T12:31:38.638Z,-40.00
2019-03-12T12:32:38.672Z,-40.00
2019-03-12T12:33:38.698Z,-40.00
2019-03-12T12:34:38.727Z,-40.00